Time;durP1;ratioP1;P1;durP2;ratioP2;P2;SDS_P1;SDS_P2;PMS_P1;PMS_P2;Temp;Humidity;BMP_temperature;BMP_pressure;BME280_temperature;BME280_humidity;BME280_pressure;Samples;Min_cycle;Max_cycle;Signal;HPM_P1;HPM_P2
2022/11/27 00:01:38;;;;;;;50.70;22.90;;;;;;;5.56;77.65;99767.13;5053090;28;20054;-80
2022/11/27 00:04:04;;;;;;;48.10;21.50;;;;;;;5.55;78.01;99760.03;5051998;28;20063;-80
2022/11/27 00:06:31;;;;;;;48.75;22.30;;;;;;;5.53;77.79;99753.16;5052398;28;20036;-80
2022/11/27 00:08:58;;;;;;;49.13;21.77;;;;;;;5.51;77.49;99756.09;5052075;28;20037;-80
2022/11/27 00:11:25;;;;;;;49.05;22.58;;;;;;;5.48;77.72;99754.69;5051325;28;20029;-81
2022/11/27 00:13:51;;;;;;;50.33;23.00;;;;;;;5.50;77.56;99765.34;5052419;28;20021;-80
2022/11/27 00:16:19;;;;;;;50.05;22.67;;;;;;;5.48;77.79;99765.56;5052755;28;20033;-80
2022/11/27 00:18:44;;;;;;;51.75;22.42;;;;;;;5.46;77.38;99762.25;5052500;28;20029;-80
2022/11/27 00:21:14;;;;;;;51.63;23.58;;;;;;;5.44;77.45;99766.28;5051432;28;20037;-80
2022/11/27 00:23:39;;;;;;;49.75;22.65;;;;;;;5.42;77.59;99758.31;5052537;28;20113;-80
2022/11/27 00:26:06;;;;;;;54.60;23.80;;;;;;;5.44;77.55;99769.00;5052832;28;20116;-80
2022/11/27 00:28:32;;;;;;;54.63;24.50;;;;;;;5.42;77.96;99763.75;5052420;28;20119;-80
2022/11/27 00:30:59;;;;;;;55.97;25.38;;;;;;;5.42;78.14;99771.13;5052601;28;20400;-80
2022/11/27 00:33:24;;;;;;;59.55;24.83;;;;;;;5.42;77.64;99765.66;5052127;28;20025;-80
2022/11/27 00:35:49;;;;;;;55.80;25.45;;;;;;;5.42;77.56;99769.22;5051629;28;20039;-80
2022/11/27 00:38:15;;;;;;;62.10;25.95;;;;;;;5.44;78.06;99769.81;5052329;28;20033;-80
2022/11/27 00:40:40;;;;;;;65.00;27.00;;;;;;;5.44;77.72;99763.56;5052193;28;20032;-81
2022/11/27 00:43:06;;;;;;;64.32;27.85;;;;;;;5.44;78.08;99766.28;5052506;28;20465;-80
2022/11/27 00:45:31;;;;;;;63.88;29.02;;;;;;;5.44;77.59;99766.28;5052071;28;20021;-80
2022/11/27 00:47:56;;;;;;;63.65;29.88;;;;;;;5.44;78.01;99769.00;5052062;28;20025;-80
2022/11/27 00:50:22;;;;;;;67.40;29.98;;;;;;;5.44;77.42;99777.16;5050669;28;20024;-80
2022/11/27 00:52:47;;;;;;;67.55;34.55;;;;;;;5.44;77.76;99767.09;5052168;28;20029;-80
2022/11/27 00:55:13;;;;;;;72.45;33.42;;;;;;;5.45;78.01;99762.50;5051825;28;20376;-80
2022/11/27 00:57:38;;;;;;;65.93;32.05;;;;;;;5.46;77.50;99766.88;5050694;28;20033;-80
2022/11/27 01:00:05;;;;;;;69.07;30.85;;;;;;;5.45;77.91;99765.22;5049944;28;20017;-81
2022/11/27 01:02:32;;;;;;;73.72;34.10;;;;;;;5.43;77.30;99764.63;5049847;28;20807;-81
2022/11/27 01:04:57;;;;;;;71.57;31.10;;;;;;;5.45;77.75;99766.03;5050516;28;20461;-81
2022/11/27 01:07:26;;;;;;;67.68;30.75;;;;;;;5.44;77.83;99767.09;5050713;28;20029;-81
2022/11/27 01:09:51;;;;;;;66.35;30.38;;;;;;;5.45;77.63;99765.22;5050828;28;20481;-81
2022/11/27 01:12:16;;;;;;;66.30;28.85;;;;;;;5.46;77.85;99770.41;5050442;28;20032;-81
2022/11/27 01:14:42;;;;;;;68.05;28.27;;;;;;;5.44;77.57;99769.00;5050231;28;20074;-81
2022/11/27 01:17:07;;;;;;;63.90;28.60;;;;;;;5.44;77.90;99769.00;5050748;28;20035;-83
2022/11/27 01:19:32;;;;;;;71.00;28.17;;;;;;;5.43;77.72;99761.88;5050459;28;20029;-80
2022/11/27 01:21:58;;;;;;;69.35;29.55;;;;;;;5.44;77.43;99760.84;5050501;28;20025;-80
2022/11/27 01:24:23;;;;;;;72.00;29.48;;;;;;;5.43;77.92;99757.25;5050522;28;20064;-81
2022/11/27 01:26:49;;;;;;;75.47;30.25;;;;;;;5.43;77.92;99762.72;5050649;28;20032;-80
2022/11/27 01:29:14;;;;;;;68.60;28.08;;;;;;;5.43;77.78;99759.16;5050303;28;20075;-80
2022/11/27 01:31:40;;;;;;;70.45;29.40;;;;;;;5.43;77.71;99765.44;5050746;28;20373;-80
2022/11/27 01:34:08;;;;;;;70.78;28.40;;;;;;;5.42;77.50;99758.31;5051094;28;20292;-78
2022/11/27 01:36:34;;;;;;;68.75;28.48;;;;;;;5.42;78.05;99762.94;5050538;28;20057;-77
2022/11/27 01:39:00;;;;;;;72.95;27.50;;;;;;;5.43;77.72;99764.63;5050415;28;20037;-78
2022/11/27 01:41:29;;;;;;;71.90;29.02;;;;;;;5.43;77.98;99772.78;5050690;28;20074;-79
2022/11/27 01:44:22;;;;;;;62.95;26.33;;;;;;;5.43;77.66;99759.97;5049272;28;20470;-79
2022/11/27 01:46:59;;;;;;;70.70;26.40;;;;;;;5.43;77.53;99765.44;5047924;28;20059;-78
2022/11/27 01:49:32;;;;;;;70.82;27.23;;;;;;;5.45;78.17;99765.22;5047468;28;20082;-79
2022/11/27 01:52:02;;;;;;;65.38;25.95;;;;;;;5.45;77.76;99767.94;5047769;28;20033;-79
2022/11/27 01:54:41;;;;;;;72.05;28.27;;;;;;;5.43;77.79;99765.44;5050142;28;20032;-80
2022/11/27 01:57:14;;;;;;;70.05;27.15;;;;;;;5.43;77.67;99762.72;5048086;28;20041;-78
2022/11/27 01:59:40;;;;;;;66.00;27.08;;;;;;;5.40;77.48;99767.78;5049882;28;20500;-77
2022/11/27 02:02:05;;;;;;;71.07;27.48;;;;;;;5.40;77.47;99755.00;5047051;28;20036;-78
2022/11/27 02:04:31;;;;;;;69.43;27.95;;;;;;;5.41;77.79;99761.28;5049231;28;20056;-78
2022/11/27 02:06:58;;;;;;;74.00;29.75;;;;;;;5.39;77.69;99756.06;5048994;28;20029;-78
2022/11/27 02:09:24;;;;;;;74.82;30.70;;;;;;;5.41;77.74;99759.38;5049535;28;20672;-77
2022/11/27 02:12:05;;;;;;;76.50;30.77;;;;;;;5.42;77.67;99761.03;5050460;28;20017;-77
2022/11/27 02:14:55;;;;;;;68.18;29.88;;;;;;;5.44;77.86;99755.38;5049058;28;20040;-77
2022/11/27 02:17:23;;;;;;;;;;;;;;;5.46;77.63;99764.16;5048161;28;20097;-77
2022/11/27 02:19:48;;;;;;;71.72;29.95;;;;;;;5.44;77.69;99763.56;5049235;28;19912;-77
2022/11/27 02:22:36;;;;;;;74.43;29.73;;;;;;;5.39;77.42;99761.50;5049611;28;20374;-77
2022/11/27 02:25:06;;;;;;;70.93;29.88;;;;;;;5.34;77.13;99764.91;5048748;28;20025;-78
2022/11/27 02:27:40;;;;;;;67.70;29.20;;;;;;;5.34;77.70;99766.78;5049237;28;20036;-77
2022/11/27 02:30:06;;;;;;;71.18;28.60;;;;;;;5.34;77.81;99758.63;5048704;28;20029;-78
2022/11/27 02:32:40;;;;;;;67.80;27.98;;;;;;;5.34;77.90;99759.47;5049831;28;20060;-78
2022/11/27 02:35:34;;;;;;;67.90;29.05;;;;;;;5.35;77.85;99766.59;5048083;28;20120;-77
2022/11/27 02:38:24;;;;;;;71.28;28.23;;;;;;;5.35;78.11;99763.00;5048667;28;20047;-77
2022/11/27 02:40:55;;;;;;;69.63;27.60;;;;;;;5.37;77.70;99769.06;5049189;28;20025;-77
2022/11/27 02:43:32;;;;;;;64.97;27.85;;;;;;;5.38;77.83;99767.19;5050230;28;20303;-77
2022/11/27 02:45:59;;;;;;;74.35;27.10;;;;;;;5.38;77.72;99767.19;5049133;28;20035;-78
2022/11/27 02:48:41;;;;;;;77.10;29.83;;;;;;;5.39;77.61;99766.13;5047273;28;20029;-77
2022/11/27 02:51:07;;;;;;;70.30;29.55;;;;;;;5.39;77.62;99757.97;5049547;28;20052;-77
2022/11/27 02:53:37;;;;;;;70.18;28.67;;;;;;;5.38;78.08;99773.44;5049048;28;20025;-77
2022/11/27 02:56:09;;;;;;;68.18;28.52;;;;;;;5.38;77.96;99778.06;5048421;28;20043;-77
2022/11/27 02:58:36;;;;;;;70.20;28.98;;;;;;;5.39;77.88;99775.09;5053675;28;20075;-78
2022/11/27 03:01:04;;;;;;;72.07;27.83;;;;;;;5.39;77.90;99775.09;5055173;28;20112;-77
2022/11/27 03:03:34;;;;;;;70.88;28.85;;;;;;;5.40;77.71;99775.94;5055816;28;20025;-77
2022/11/27 03:06:07;;;;;;;75.63;28.50;;;;;;;5.40;77.92;99776.78;5054111;28;20040;-78
2022/11/27 03:08:45;;;;;;;72.18;27.30;;;;;;;5.41;77.83;99777.63;5055096;28;20266;-78
2022/11/27 03:11:13;;;;;;;70.53;27.35;;;;;;;5.40;77.68;99768.59;5055066;28;20055;-77
2022/11/27 03:13:43;;;;;;;73.45;28.40;;;;;;;5.41;78.27;99783.06;5055583;28;20040;-77
2022/11/27 03:16:15;;;;;;;68.30;27.80;;;;;;;5.41;77.93;99778.44;5055305;28;20028;-77
2022/11/27 03:18:50;;;;;;;72.45;28.65;;;;;;;5.41;77.90;99778.44;5054529;28;20082;-77
2022/11/27 03:21:36;;;;;;;66.55;28.45;;;;;;;5.40;77.51;99787.66;5055118;28;20025;-77
2022/11/27 03:24:01;;;;;;;70.30;27.60;;;;;;;5.40;77.91;99776.78;5055623;28;20040;-78
2022/11/27 03:26:27;;;;;;;72.10;26.45;;;;;;;5.41;78.11;99783.88;5055266;28;20022;-78
2022/11/27 03:28:54;;;;;;;68.28;25.33;;;;;;;5.40;78.17;99778.66;5053231;28;20033;-78
2022/11/27 03:31:22;;;;;;;73.65;26.98;;;;;;;5.37;77.73;99774.50;5055498;28;20365;-77
2022/11/27 03:33:48;;;;;;;70.55;25.02;;;;;;;5.38;77.52;99778.06;5056072;28;20025;-77
2022/11/27 03:36:16;;;;;;;72.93;26.42;;;;;;;5.37;77.83;99771.78;5055508;28;20056;-78
2022/11/27 03:38:42;;;;;;;68.70;26.98;;;;;;;5.36;77.78;99770.97;5054607;28;20090;-78
2022/11/27 03:41:17;;;;;;;69.63;25.75;;;;;;;5.35;78.10;99772.03;5054563;28;20468;-77
2022/11/27 03:43:56;;;;;;;71.00;24.83;;;;;;;5.33;77.90;99765.97;5055127;28;20072;-77
2022/11/27 03:46:44;;;;;;;70.72;26.23;;;;;;;5.32;77.90;99760.75;5054006;28;20024;-77
2022/11/27 03:49:32;;;;;;;69.03;26.35;;;;;;;5.30;77.55;99755.56;5050986;28;20139;-77
2022/11/27 03:52:11;;;;;;;66.35;25.55;;;;;;;5.29;78.14;99766.69;5054489;28;20041;-77
2022/11/27 03:54:52;;;;;;;68.65;26.75;;;;;;;5.27;78.42;99769.63;5055424;28;20091;-77
2022/11/27 03:57:59;;;;;;;68.75;24.33;;;;;;;5.29;77.78;99761.25;5054755;28;20021;-77
2022/11/27 04:00:29;;;;;;;69.38;22.80;;;;;;;5.31;78.02;99761.81;5046973;28;20473;-77
2022/11/27 04:02:54;;;;;;;64.72;24.00;;;;;;;5.29;77.80;99753.91;5053753;28;20020;-77
2022/11/27 04:05:20;;;;;;;65.05;22.70;;;;;;;5.30;77.65;99754.75;5055529;28;20104;-77
2022/11/27 04:07:46;;;;;;;64.18;23.83;;;;;;;5.28;78.11;99762.31;5053436;28;20104;-76
2022/11/27 04:10:12;;;;;;;68.50;23.70;;;;;;;5.24;77.51;99764.63;5050785;28;20112;-77
2022/11/27 04:12:37;;;;;;;61.45;22.75;;;;;;;5.24;78.34;99767.34;5051493;28;20049;-76
2022/11/27 04:15:05;;;;;;;62.67;23.65;;;;;;;5.23;78.10;99762.97;5051842;28;20571;-77
2022/11/27 04:17:30;;;;;;;65.40;24.05;;;;;;;5.23;77.72;99760.25;5052123;28;20465;-77
2022/11/27 04:19:56;;;;;;;60.47;22.83;;;;;;;5.26;77.85;99758.97;5051397;28;20036;-76
2022/11/27 04:22:21;;;;;;;54.28;20.58;;;;;;;5.26;78.10;99761.69;5051498;28;20457;-76
2022/11/27 04:24:48;;;;;;;61.05;23.63;;;;;;;5.25;77.85;99769.00;5051730;28;20040;-77
2022/11/27 04:27:13;;;;;;;65.72;24.77;;;;;;;5.25;78.06;99763.56;5052150;28;20067;-77
2022/11/27 04:29:39;;;;;;;62.50;25.13;;;;;;;5.22;77.98;99766.75;5050983;28;20021;-76
2022/11/27 04:32:04;;;;;;;64.25;24.27;;;;;;;5.20;77.66;99768.88;5051678;28;20036;-76
2022/11/27 04:34:30;;;;;;;68.18;26.95;;;;;;;5.18;77.92;99768.25;5051967;28;20033;-76
2022/11/27 04:36:56;;;;;;;71.75;28.20;;;;;;;5.18;78.19;99770.97;5048301;28;20040;-77
2022/11/27 04:39:21;;;;;;;69.88;27.13;;;;;;;5.18;78.16;99770.97;5051460;28;20517;-76
2022/11/27 04:41:47;;;;;;;67.93;24.98;;;;;;;5.19;78.14;99773.50;5051890;28;20033;-76
2022/11/27 04:44:13;;;;;;;76.55;27.10;;;;;;;5.18;78.06;99782.69;5051773;28;20112;-76
2022/11/27 04:46:38;;;;;;;65.25;25.42;;;;;;;5.16;77.82;99768.50;5051647;28;20377;-76
2022/11/27 04:49:03;;;;;;;67.50;27.80;;;;;;;5.14;77.66;99770.63;5051194;28;20053;-76
2022/11/27 04:51:29;;;;;;;60.85;25.23;;;;;;;5.14;77.71;99776.06;5051324;28;20048;-77
2022/11/27 04:53:54;;;;;;;64.05;25.02;;;;;;;5.14;77.97;99780.66;5051365;28;20029;-77
2022/11/27 04:56:20;;;;;;;57.40;23.88;;;;;;;5.14;77.71;99775.22;5051313;28;20061;-76
2022/11/27 04:58:46;;;;;;;66.47;23.58;;;;;;;5.14;77.95;99762.47;5051556;28;20021;-76
2022/11/27 05:01:11;;;;;;;54.33;24.50;;;;;;;5.15;77.92;99757.84;5051377;28;20032;-76
2022/11/27 05:03:37;;;;;;;54.33;22.35;;;;;;;5.13;77.53;99759.94;5049800;28;20516;-76
2022/11/27 05:06:02;;;;;;;49.83;22.35;;;;;;;5.11;77.91;99756.63;5051378;28;20381;-76
2022/11/27 05:08:32;;;;;;;50.65;21.85;;;;;;;5.10;77.46;99747.66;5051185;28;20029;-76
2022/11/27 05:11:02;;;;;;;53.67;22.40;;;;;;;5.05;77.48;99745.63;5051221;28;20032;-76
2022/11/27 05:13:27;;;;;;;;;;;;;;;5.05;77.80;99750.22;5051990;28;20401;-76
2022/11/27 05:15:54;;;;;;;49.92;21.88;;;;;;;5.03;77.96;99752.34;5051486;28;20007;-76
2022/11/27 05:18:19;;;;;;;46.55;20.98;;;;;;;5.00;77.78;99756.34;5051542;28;20473;-77
2022/11/27 05:20:45;;;;;;;44.47;20.75;;;;;;;4.99;77.63;99753.84;5050515;28;20017;-77
2022/11/27 05:23:10;;;;;;;44.80;21.92;;;;;;;4.99;77.61;99754.69;5051703;28;20393;-77
2022/11/27 05:25:36;;;;;;;46.20;20.70;;;;;;;5.01;77.91;99755.28;5051778;28;20377;-76
2022/11/27 05:28:01;;;;;;;45.95;21.02;;;;;;;5.00;78.10;99753.63;5051705;28;20116;-77
2022/11/27 05:30:26;;;;;;;45.85;20.33;;;;;;;4.98;77.49;99757.63;5051559;28;20024;-77
2022/11/27 05:32:52;;;;;;;45.10;21.30;;;;;;;4.95;77.96;99756.19;5051186;28;20029;-77
2022/11/27 05:35:17;;;;;;;50.47;21.63;;;;;;;4.93;77.92;99744.72;5050225;28;20060;-76
2022/11/27 05:37:43;;;;;;;44.33;21.65;;;;;;;4.94;77.29;99751.81;5051729;28;20025;-76
2022/11/27 05:40:08;;;;;;;50.30;23.42;;;;;;;4.92;77.33;99743.88;5049618;28;20025;-76
2022/11/27 05:42:34;;;;;;;55.00;24.13;;;;;;;4.94;77.57;99750.97;5050816;28;20070;-76
2022/11/27 05:44:59;;;;;;;58.20;24.73;;;;;;;4.95;77.57;99752.63;5049325;28;20028;-76
2022/11/27 05:47:24;;;;;;;62.33;28.98;;;;;;;4.92;77.57;99749.31;5053180;28;20079;-78
2022/11/27 05:49:50;;;;;;;53.78;25.27;;;;;;;4.92;77.56;99752.03;5049884;28;20512;-78
2022/11/27 05:52:15;;;;;;;53.55;23.88;;;;;;;4.91;77.38;99755.81;5050532;28;20122;-78
2022/11/27 05:54:40;;;;;;;52.83;24.75;;;;;;;4.92;77.96;99748.50;5050008;28;20496;-79
2022/11/27 05:57:06;;;;;;;110.05;37.03;;;;;;;4.92;78.05;99748.50;5051001;28;20036;-78
2022/11/27 05:59:31;;;;;;;116.25;38.85;;;;;;;4.91;77.50;99752.28;5050574;28;20477;-78
2022/11/27 06:01:57;;;;;;;83.15;32.75;;;;;;;4.93;78.11;99750.16;5049740;28;20021;-78
2022/11/27 06:04:22;;;;;;;60.60;25.67;;;;;;;4.95;77.68;99756.19;5050312;28;20032;-78
2022/11/27 06:06:47;;;;;;;57.40;23.40;;;;;;;4.97;77.64;99758.69;5050858;28;20087;-79
2022/11/27 06:09:13;;;;;;;48.33;21.38;;;;;;;4.97;77.62;99755.97;5050522;28;20048;-83
2022/11/27 06:11:38;;;;;;;48.75;21.48;;;;;;;4.99;77.91;99754.69;5050599;28;20107;-81
2022/11/27 06:14:07;;;;;;;53.15;24.23;;;;;;;5.01;78.08;99751.72;5049696;28;20033;-81
2022/11/27 06:16:32;;;;;;;104.72;36.53;;;;;;;5.00;77.82;99748.19;5051667;28;20036;-76
2022/11/27 06:18:58;;;;;;;88.50;34.53;;;;;;;4.98;77.98;99742.16;5050093;28;20420;-76
2022/11/27 06:21:23;;;;;;;85.10;32.08;;;;;;;4.97;77.89;99745.94;5048996;28;20021;-76
2022/11/27 06:23:54;;;;;;;59.13;25.45;;;;;;;4.97;78.00;99745.09;5049195;28;20020;-76
2022/11/27 06:26:24;;;;;;;51.38;23.02;;;;;;;4.98;78.07;99749.47;5045616;28;20025;-76
2022/11/27 06:28:50;;;;;;;48.20;21.10;;;;;;;5.00;77.67;99750.06;5050471;28;20027;-76
2022/11/27 06:31:21;;;;;;;47.58;21.85;;;;;;;5.01;78.04;99747.13;5049504;28;20287;-77
2022/11/27 06:33:49;;;;;;;50.08;22.90;;;;;;;5.03;77.99;99753.19;5050226;28;20031;-77
2022/11/27 06:36:16;;;;;;;46.45;21.38;;;;;;;5.03;78.17;99761.34;5049405;28;20067;-77
2022/11/27 06:38:41;;;;;;;48.95;21.90;;;;;;;5.02;77.88;99762.41;5049877;28;20381;-77
2022/11/27 06:41:12;;;;;;;43.03;20.95;;;;;;;4.99;77.78;99759.28;5048510;28;20021;-79
2022/11/27 06:43:38;;;;;;;42.20;20.10;;;;;;;4.97;77.72;99772.28;5048550;28;20029;-76
2022/11/27 06:46:05;;;;;;;39.45;20.10;;;;;;;4.96;77.27;99768.75;5048357;28;20465;-76
2022/11/27 06:48:31;;;;;;;65.47;39.28;;;;;;;4.97;78.09;99770.41;5048630;28;20473;-76
2022/11/27 06:51:01;;;;;;;46.63;23.92;;;;;;;5.01;78.06;99768.03;5047818;28;20444;-76
2022/11/27 06:53:28;;;;;;;43.72;23.85;;;;;;;5.02;78.39;99767.00;5046277;28;20037;-76
2022/11/27 06:55:53;;;;;;;45.97;23.52;;;;;;;5.03;77.97;99772.22;5046710;28;20028;-76
2022/11/27 06:58:19;;;;;;;45.15;24.02;;;;;;;5.04;78.07;99773.88;5047916;28;20056;-76
2022/11/27 07:00:44;;;;;;;51.75;23.33;;;;;;;5.07;78.09;99775.31;5047841;28;20583;-76
2022/11/27 07:03:09;;;;;;;44.55;21.55;;;;;;;5.09;77.69;99780.53;5048279;28;20027;-77
2022/11/27 07:05:35;;;;;;;47.28;21.90;;;;;;;5.10;77.97;99776.72;5048243;28;20021;-77
2022/11/27 07:08:01;;;;;;;114.22;44.95;;;;;;;5.12;77.49;99777.31;5048074;28;20055;-77
2022/11/27 07:10:26;;;;;;;110.55;44.10;;;;;;;5.16;78.17;99773.09;5047397;28;20088;-77
2022/11/27 07:12:51;;;;;;;63.50;28.35;;;;;;;5.18;77.93;99781.84;5047733;28;20041;-77
2022/11/27 07:15:17;;;;;;;56.03;24.08;;;;;;;5.20;77.83;99783.31;5047645;28;20124;-77
2022/11/27 07:17:42;;;;;;;52.35;22.95;;;;;;;5.25;77.92;99785.34;5047079;28;20084;-77
2022/11/27 07:20:08;;;;;;;46.55;21.90;;;;;;;5.24;77.74;99775.50;5045444;28;20029;-77
2022/11/27 07:22:33;;;;;;;46.15;20.92;;;;;;;5.26;78.03;99788.91;5047758;28;20717;-77
2022/11/27 07:24:59;;;;;;;46.30;20.83;;;;;;;5.25;77.72;99779.06;5047540;28;20529;-77
2022/11/27 07:27:25;;;;;;;47.22;22.08;;;;;;;5.23;77.63;99782.00;5047559;28;20457;-77
2022/11/27 07:29:51;;;;;;;44.13;21.38;;;;;;;5.27;77.64;99776.97;5047773;28;20029;-77
2022/11/27 07:32:16;;;;;;;41.05;19.08;;;;;;;5.28;78.02;99778.63;5047713;28;20033;-76
2022/11/27 07:34:41;;;;;;;43.90;19.38;;;;;;;5.28;77.76;99779.44;5048126;28;20120;-77
2022/11/27 07:37:07;;;;;;;54.22;23.52;;;;;;;5.29;78.02;99780.28;5046191;28;20033;-77
2022/11/27 07:39:32;;;;;;;47.80;24.08;;;;;;;5.29;77.89;99781.09;5047436;28;20013;-77
2022/11/27 07:41:58;;;;;;;38.88;20.80;;;;;;;5.28;77.98;99790.31;5047328;28;20465;-76
2022/11/27 07:44:23;;;;;;;41.65;20.17;;;;;;;5.28;77.95;99779.44;5048538;28;20055;-77
2022/11/27 07:46:48;;;;;;;45.75;23.52;;;;;;;5.30;77.94;99790.91;5051235;28;20491;-76
2022/11/27 07:49:14;;;;;;;45.25;22.50;;;;;;;5.33;77.83;99792.34;5051242;28;20032;-76
2022/11/27 07:51:39;;;;;;;40.00;21.35;;;;;;;5.33;77.85;99787.75;5050185;28;20060;-76
2022/11/27 07:54:04;;;;;;;45.88;23.55;;;;;;;5.32;77.56;99793.41;5051702;28;20064;-76
2022/11/27 07:56:30;;;;;;;44.80;21.52;;;;;;;5.33;77.98;99785.03;5050184;28;20041;-76
2022/11/27 07:58:57;;;;;;;41.30;20.15;;;;;;;5.32;77.67;99780.63;5049814;28;20300;-77
2022/11/27 08:01:22;;;;;;;42.58;18.70;;;;;;;5.31;77.28;99783.56;5050401;28;20025;-76
2022/11/27 08:03:48;;;;;;;37.80;17.23;;;;;;;5.30;77.85;99774.59;5051250;28;20473;-76
2022/11/27 08:06:19;;;;;;;42.70;20.02;;;;;;;5.31;77.45;99783.56;5050086;28;20040;-77
2022/11/27 08:08:45;;;;;;;44.10;20.65;;;;;;;5.31;78.00;99781.69;5049731;28;20017;-76
2022/11/27 08:11:18;;;;;;;41.63;19.13;;;;;;;5.32;77.58;99780.63;5051138;28;20383;-76
2022/11/27 08:13:45;;;;;;;44.83;19.52;;;;;;;5.34;77.49;99783.13;5051897;28;20493;-78
2022/11/27 08:16:10;;;;;;;38.65;17.90;;;;;;;5.31;77.87;99778.13;5051211;28;20033;-76
2022/11/27 08:18:36;;;;;;;42.45;20.05;;;;;;;5.30;77.53;99781.94;5049581;28;20102;-76
2022/11/27 08:21:01;;;;;;;42.85;19.83;;;;;;;5.31;77.65;99775.41;5050400;28;20025;-76
2022/11/27 08:23:26;;;;;;;46.90;20.27;;;;;;;5.33;78.02;99770.56;5050183;28;20480;-77
2022/11/27 08:25:53;;;;;;;42.92;20.20;;;;;;;5.35;78.20;99766.59;5050397;28;20028;-76
2022/11/27 08:28:18;;;;;;;45.53;21.77;;;;;;;5.39;78.07;99758.78;5049447;28;20025;-76
2022/11/27 08:30:43;;;;;;;41.88;19.75;;;;;;;5.44;77.94;99777.16;5050194;28;20029;-76
2022/11/27 08:33:11;;;;;;;41.90;19.45;;;;;;;5.46;78.15;99784.00;5049798;28;20037;-76
2022/11/27 08:35:37;;;;;;;43.17;21.48;;;;;;;5.48;77.62;99795.50;5049868;28;20529;-77
2022/11/27 08:38:02;;;;;;;42.53;21.52;;;;;;;5.49;78.20;99789.00;5049722;28;20140;-76
2022/11/27 08:40:27;;;;;;;45.80;24.17;;;;;;;5.51;77.78;99791.47;5049305;28;20761;-77
2022/11/27 08:42:53;;;;;;;43.13;24.27;;;;;;;5.54;77.45;99782.84;5049780;28;20066;-76
2022/11/27 08:45:18;;;;;;;41.88;20.88;;;;;;;5.53;77.55;99786.63;5050579;28;20035;-76
2022/11/27 08:47:43;;;;;;;43.05;22.20;;;;;;;5.52;77.67;99784.97;5050244;28;20028;-77
2022/11/27 08:50:09;;;;;;;40.30;20.90;;;;;;;5.51;77.47;99792.31;5049275;28;20044;-77
2022/11/27 08:52:34;;;;;;;41.22;19.77;;;;;;;5.52;77.68;99793.13;5049985;28;20099;-76
2022/11/27 08:55:00;;;;;;;33.35;16.85;;;;;;;5.50;77.51;99779.78;5049563;28;20025;-76
2022/11/27 08:57:25;;;;;;;39.15;17.35;;;;;;;5.55;77.48;99786.41;5049243;28;20033;-76
2022/11/27 08:59:50;;;;;;;43.92;20.02;;;;;;;5.54;77.51;99782.03;5049146;28;20120;-76
2022/11/27 09:02:16;;;;;;;40.33;21.55;;;;;;;5.54;77.53;99780.13;5048584;28;20069;-76
2022/11/27 09:04:41;;;;;;;50.00;26.63;;;;;;;5.57;77.60;99776.94;5049897;28;20389;-75
2022/11/27 09:07:07;;;;;;;42.58;25.85;;;;;;;5.59;77.85;99774.84;5050118;28;20094;-76
2022/11/27 09:09:32;;;;;;;40.05;22.17;;;;;;;5.60;77.92;99781.13;5048434;28;20402;-75
2022/11/27 09:11:58;;;;;;;50.08;30.63;;;;;;;5.64;77.82;99785.06;5049764;28;20094;-76
2022/11/27 09:14:23;;;;;;;41.22;21.30;;;;;;;5.66;77.62;99780.19;5049533;28;20462;-75
2022/11/27 09:16:48;;;;;;;38.75;20.70;;;;;;;5.71;77.42;99784.94;5049456;28;20052;-77
2022/11/27 09:19:14;;;;;;;36.28;19.52;;;;;;;5.74;78.01;99777.13;5048625;28;20025;-76
2022/11/27 09:21:39;;;;;;;40.15;18.98;;;;;;;5.76;77.77;99782.34;5048761;28;20021;-75
2022/11/27 09:24:05;;;;;;;39.40;19.60;;;;;;;5.79;77.52;99784.63;5050569;28;20485;-76
2022/11/27 09:26:32;;;;;;;37.05;19.85;;;;;;;5.84;77.29;99781.19;5051903;28;20036;-75
2022/11/27 09:28:58;;;;;;;37.35;18.10;;;;;;;5.85;77.39;99783.69;5049826;28;20055;-76
2022/11/27 09:31:24;;;;;;;38.92;18.83;;;;;;;5.89;77.54;99784.06;5048248;28;20108;-76
2022/11/27 09:33:50;;;;;;;36.75;18.58;;;;;;;5.91;76.98;99787.38;5048735;28;20059;-76
2022/11/27 09:36:20;;;;;;;36.35;17.20;;;;;;;5.93;77.36;99780.63;5047181;28;20055;-75
2022/11/27 09:38:45;;;;;;;;;;;;;;;5.96;77.21;99774.72;5050929;28;20147;-76
2022/11/27 09:41:38;;;;;;;39.15;21.10;;;;;;;5.96;77.34;99776.63;5049273;28;20035;-76
2022/11/27 09:44:26;;;;;;;34.13;18.63;;;;;;;5.96;77.25;99776.63;5049320;28;20036;-76
2022/11/27 09:46:55;;;;;;;35.45;18.23;;;;;;;5.97;77.31;99770.91;5048528;28;20041;-76
2022/11/27 09:49:36;;;;;;;39.45;19.58;;;;;;;5.95;77.13;99766.78;5044258;28;20021;-76
2022/11/27 09:52:22;;;;;;;36.30;19.45;;;;;;;5.93;76.99;99766.19;5047481;28;20049;-76
2022/11/27 09:55:08;;;;;;;37.67;19.27;;;;;;;5.95;76.81;99758.63;5048304;28;20047;-77
2022/11/27 09:57:36;;;;;;;38.15;20.42;;;;;;;5.96;76.85;99758.38;5047425;28;20207;-76
2022/11/27 10:00:12;;;;;;;39.88;21.52;;;;;;;5.95;77.13;99748.53;5046595;28;20032;-76
2022/11/27 10:02:39;;;;;;;36.63;19.05;;;;;;;5.95;76.97;99751.25;5045430;28;20071;-76
2022/11/27 10:05:15;;;;;;;41.15;21.50;;;;;;;5.94;76.91;99748.78;5049216;28;20115;-76
2022/11/27 10:07:50;;;;;;;70.22;45.00;;;;;;;5.97;76.59;99748.31;5047328;28;20171;-77
2022/11/27 10:10:40;;;;;;;59.03;35.78;;;;;;;5.94;76.79;99746.88;5045838;28;20025;-76
2022/11/27 10:13:12;;;;;;;42.15;23.25;;;;;;;5.99;76.84;99731.72;5044244;28;20029;-76
2022/11/27 10:15:46;;;;;;;42.80;23.45;;;;;;;6.04;76.81;99731.91;5047781;28;20029;-76
2022/11/27 10:18:27;;;;;;;40.30;20.45;;;;;;;6.09;76.98;99735.59;5048543;28;20033;-76
2022/11/27 10:21:07;;;;;;;40.33;20.75;;;;;;;6.09;77.05;99732.88;5045368;28;20112;-77
2022/11/27 10:23:33;;;;;;;112.75;54.13;;;;;;;6.15;76.95;99733.81;5047111;28;20489;-76
2022/11/27 10:26:05;;;;;;;159.05;58.95;;;;;;;6.18;76.97;99727.88;5045898;28;20029;-76
2022/11/27 10:28:45;;;;;;;185.68;52.00;;;;;;;6.23;77.14;99719.00;5049811;28;20032;-76
2022/11/27 10:31:17;;;;;;;163.65;46.17;;;;;;;6.29;77.14;99725.41;5049006;28;20512;-76
2022/11/27 10:33:48;;;;;;;306.83;77.47;;;;;;;6.34;76.97;99712.72;5046402;28;20021;-77
2022/11/27 10:36:28;;;;;;;93.75;33.85;;;;;;;6.38;76.92;99715.78;5049179;28;20552;-77
2022/11/27 10:38:56;;;;;;;70.90;35.22;;;;;;;6.44;77.10;99709.41;5048470;28;20055;-77
2022/11/27 10:41:38;;;;;;;120.32;42.35;;;;;;;6.51;77.00;99709.28;5047931;28;20508;-77
2022/11/27 10:44:24;;;;;;;284.38;86.55;;;;;;;6.60;77.10;99707.03;5048244;28;20529;-77
2022/11/27 10:46:54;;;;;;;146.55;52.42;;;;;;;6.66;76.71;99700.63;5049401;28;20143;-76
2022/11/27 10:49:19;;;;;;;67.72;29.65;;;;;;;6.70;77.33;99708.06;5046758;28;20103;-76
2022/11/27 10:51:44;;;;;;;62.72;30.00;;;;;;;6.72;76.98;99696.94;5046094;28;20051;-76
2022/11/27 10:54:25;;;;;;;58.00;28.85;;;;;;;6.76;76.81;99697.28;5046675;28;20024;-76
2022/11/27 10:56:58;;;;;;;53.13;25.00;;;;;;;6.76;76.94;99698.09;5045598;28;20028;-76
2022/11/27 10:59:30;;;;;;;45.13;22.90;;;;;;;6.77;76.91;99698.94;5045269;28;20060;-76
2022/11/27 11:01:57;;;;;;;50.25;25.48;;;;;;;6.76;76.77;99692.63;5046992;28;20032;-76
2022/11/27 11:04:30;;;;;;;43.63;24.00;;;;;;;6.76;76.70;99698.09;5046446;28;20083;-77
2022/11/27 11:06:56;;;;;;;42.15;23.10;;;;;;;6.78;77.22;99704.13;5047348;28;20067;-77
2022/11/27 11:09:33;;;;;;;42.92;23.17;;;;;;;6.76;76.93;99694.53;5045701;28;20321;-76
2022/11/27 11:12:19;;;;;;;44.15;22.67;;;;;;;6.75;76.85;99693.69;5044753;28;20060;-76
2022/11/27 11:14:59;;;;;;;43.15;22.10;;;;;;;6.73;76.94;99690.38;5047028;28;20052;-77
2022/11/27 11:17:36;;;;;;;43.88;23.17;;;;;;;6.72;76.49;99688.75;5047573;28;20480;-76
2022/11/27 11:20:19;;;;;;;43.05;22.98;;;;;;;6.72;76.28;99688.75;5050702;28;20112;-77
2022/11/27 11:22:46;;;;;;;45.75;24.25;;;;;;;6.72;76.46;99685.19;5049832;28;20036;-77
2022/11/27 11:25:19;;;;;;;43.78;23.77;;;;;;;6.74;76.51;99681.13;5051228;28;20037;-76
2022/11/27 11:27:47;;;;;;;43.15;22.52;;;;;;;6.77;76.44;99679.84;5050891;28;20047;-76
2022/11/27 11:30:38;;;;;;;38.10;19.95;;;;;;;6.77;76.46;99675.22;5050565;28;20028;-76
2022/11/27 11:33:04;;;;;;;38.85;21.40;;;;;;;6.81;76.26;99667.38;5050074;28;20040;-78
2022/11/27 11:35:38;;;;;;;40.75;22.67;;;;;;;6.83;76.51;99668.78;5055303;28;20036;-76